createdAt,value
2023-11-09T00:00:24.410Z,99961.16
2023-11-09T00:02:55.979Z,99963.69
2023-11-09T00:05:28.315Z,99951.41
2023-11-09T00:07:58.038Z,99959.50
2023-11-09T00:10:27.769Z,99958.06
2023-11-09T00:13:00.075Z,99952.00
2023-11-09T00:15:31.493Z,99947.66
2023-11-09T00:18:04.638Z,99947.03
2023-11-09T00:20:37.569Z,99939.13
2023-11-09T00:23:07.278Z,99934.94
2023-11-09T00:25:37.239Z,99932.88
2023-11-09T00:28:08.476Z,99928.50
2023-11-09T00:30:38.063Z,99917.47
2023-11-09T00:33:07.767Z,99920.19
2023-11-09T00:35:40.692Z,99910.38
2023-11-09T00:38:12.025Z,99910.38
2023-11-09T00:40:41.677Z,99915.78
2023-11-09T00:43:11.525Z,99902.06
2023-11-09T00:45:41.129Z,99902.06
2023-11-09T00:48:11.097Z,99902.69
2023-11-09T00:50:43.424Z,99895.81
2023-11-09T00:53:13.178Z,99892.50
2023-11-09T00:55:42.777Z,99887.09
2023-11-09T00:58:12.604Z,99893.53
2023-11-09T01:00:42.187Z,99881.25
2023-11-09T01:03:11.928Z,99879.81
2023-11-09T01:05:44.523Z,99884.81
2023-11-09T01:08:14.337Z,99876.84
2023-11-09T01:10:44.722Z,99869.59
2023-11-09T01:13:14.373Z,99873.97
2023-11-09T01:15:43.962Z,99864.19
2023-11-09T01:18:13.558Z,99857.97
2023-11-09T01:20:45.974Z,99871.28
2023-11-09T01:23:15.567Z,99856.25
2023-11-09T01:25:45.704Z,99857.09
2023-11-09T01:28:15.454Z,99860.88
2023-11-09T01:30:45.777Z,99862.28
2023-11-09T01:33:15.520Z,99849.81
2023-11-09T01:35:47.804Z,99835.06
2023-11-09T01:38:17.701Z,99838.38
2023-11-09T01:40:54.640Z,99844.41
2023-11-09T01:43:26.396Z,99833.41
2023-11-09T01:45:56.146Z,99837.97
2023-11-09T01:48:26.994Z,99831.72
2023-11-09T01:50:59.305Z,99834.66
2023-11-09T01:53:29.199Z,99827.97
2023-11-09T01:55:58.936Z,99820.50
2023-11-09T01:58:29.182Z,99807.38
2023-11-09T02:01:02.570Z,99811.34
2023-11-09T02:03:33.166Z,99805.94
2023-11-09T02:06:05.493Z,99803.44
2023-11-09T02:08:36.227Z,99796.81
2023-11-09T02:11:06.797Z,99796.81
2023-11-09T02:13:37.269Z,99788.25
2023-11-09T02:16:10.687Z,99794.09
2023-11-09T02:18:40.378Z,99781.63
2023-11-09T02:21:16.300Z,99779.34
2023-11-09T02:23:47.464Z,99768.53
2023-11-09T02:26:20.598Z,99769.16
2023-11-09T02:28:52.031Z,99759.59
2023-11-09T02:31:22.900Z,99750.03
2023-11-09T02:33:52.625Z,99752.88
2023-11-09T02:36:22.415Z,99747.75
2023-11-09T02:38:52.292Z,99748.16
2023-11-09T02:41:24.691Z,99740.47
2023-11-09T02:43:54.330Z,99734.84
2023-11-09T02:46:24.132Z,99735.69
2023-11-09T02:48:54.215Z,99732.78
2023-11-09T02:51:23.947Z,99728.41
2023-11-09T02:53:54.773Z,99721.75
2023-11-09T02:56:27.094Z,99718.03
2023-11-09T02:58:56.813Z,99721.34
2023-11-09T03:01:26.698Z,99716.16
2023-11-09T03:03:56.432Z,99712.81
2023-11-09T03:06:26.489Z,99703.25
2023-11-09T03:08:56.032Z,99710.34
2023-11-09T03:11:28.264Z,99696.00
2023-11-09T03:13:57.845Z,99691.19
2023-11-09T03:16:27.512Z,99693.06
2023-11-09T03:18:57.138Z,99697.63
2023-11-09T03:21:26.728Z,99696.59
2023-11-09T03:23:56.684Z,99683.94
2023-11-09T03:26:29.412Z,99689.75
2023-11-09T03:28:59.215Z,99689.75
2023-11-09T03:31:29.303Z,99686.22
2023-11-09T03:33:59.313Z,99685.38
2023-11-09T03:36:28.956Z,99681.00
2023-11-09T03:38:58.674Z,99665.63
2023-11-09T03:41:31.368Z,99661.69
2023-11-09T03:44:01.224Z,99667.72
2023-11-09T03:46:30.832Z,99659.19
2023-11-09T03:49:00.533Z,99663.75
2023-11-09T03:51:31.000Z,99671.66
2023-11-09T03:54:00.572Z,99672.88
2023-11-09T03:56:33.050Z,99670.59
2023-11-09T03:59:02.628Z,99665.38
2023-11-09T04:01:32.505Z,99657.28
2023-11-09T04:04:03.374Z,99649.81
2023-11-09T04:06:33.061Z,99647.13
2023-11-09T04:09:06.677Z,99645.44
2023-11-09T04:11:40.165Z,99638.19
2023-11-09T04:14:09.751Z,99640.91
2023-11-09T04:16:39.319Z,99630.91
2023-11-09T04:19:09.468Z,99635.91
2023-11-09T04:21:39.148Z,99643.34
2023-11-09T04:24:09.867Z,99637.16
2023-11-09T04:26:43.396Z,99638.59
2023-11-09T04:29:12.986Z,99629.66
2023-11-09T04:31:48.320Z,99635.47
2023-11-09T04:34:18.044Z,99641.91
2023-11-09T04:36:51.395Z,99630.28
2023-11-09T04:39:29.466Z,99631.09
2023-11-09T04:42:05.970Z,99637.53
2023-11-09T04:44:37.938Z,99633.38
2023-11-09T04:47:12.507Z,99634.44
2023-11-09T04:49:47.202Z,99624.88
2023-11-09T04:52:20.553Z,99627.97
2023-11-09T04:55:08.602Z,99629.44
2023-11-09T04:57:54.018Z,99624.66
2023-11-09T05:00:36.113Z,99613.22
2023-11-09T05:03:18.247Z,99617.63
2023-11-09T05:06:05.451Z,99606.81
2023-11-09T05:08:34.993Z,99603.69
2023-11-09T05:11:04.800Z,99598.28
2023-11-09T05:13:37.155Z,99591.97
2023-11-09T05:16:07.445Z,99579.78
2023-11-09T05:18:38.856Z,99587.66
2023-11-09T05:21:08.593Z,99583.72
2023-11-09T05:23:38.215Z,99578.34
2023-11-09T05:26:07.822Z,99593.69
2023-11-09T05:28:40.976Z,99578.78
2023-11-09T05:31:12.151Z,99561.72
2023-11-09T05:33:41.836Z,99574.78
2023-11-09T05:36:12.085Z,99559.41
2023-11-09T05:38:41.753Z,99568.16
2023-11-09T05:41:11.955Z,99558.78
2023-11-09T05:43:44.234Z,99567.28
2023-11-09T05:46:13.832Z,99562.13
2023-11-09T05:48:43.594Z,99558.19
2023-11-09T05:51:13.223Z,99566.69
2023-11-09T05:53:42.786Z,99553.97
2023-11-09T05:56:12.308Z,99544.44
2023-11-09T05:58:44.769Z,99558.38
2023-11-09T06:01:15.316Z,99537.16
2023-11-09T06:03:44.984Z,99542.56
2023-11-09T06:06:14.596Z,99544.25
2023-11-09T06:08:44.502Z,99539.88
2023-11-09T06:11:14.903Z,99545.69
2023-11-09T06:13:47.688Z,99547.97
2023-11-09T06:16:17.560Z,99556.06
2023-11-09T06:18:47.524Z,99558.78
2023-11-09T06:21:17.130Z,99556.72
2023-11-09T06:23:46.679Z,99557.34
2023-11-09T06:26:16.250Z,99557.34
2023-11-09T06:28:48.386Z,99550.25
2023-11-09T06:31:17.961Z,99554.03
2023-11-09T06:33:47.615Z,99550.25
2023-11-09T06:36:17.585Z,99546.94
2023-11-09T06:38:47.816Z,99554.22
2023-11-09T06:41:17.540Z,99558.97
2023-11-09T06:43:49.801Z,99549.22
2023-11-09T06:46:19.426Z,99553.78
2023-11-09T06:48:50.085Z,99563.75
2023-11-09T06:51:19.684Z,99558.75
2023-11-09T06:53:49.397Z,99562.91
2023-11-09T06:56:19.035Z,99559.38
2023-11-09T06:58:51.202Z,99559.19
2023-11-09T07:01:20.757Z,99568.56
2023-11-09T07:03:52.515Z,99569.16
2023-11-09T07:06:23.497Z,99564.78
2023-11-09T07:08:53.390Z,99569.75
2023-11-09T07:11:22.967Z,99559.38
2023-11-09T07:13:55.095Z,99579.09
2023-11-09T07:16:24.783Z,99567.47
2023-11-09T07:18:54.501Z,99578.94
2023-11-09T07:21:24.987Z,99572.69
2023-11-09T07:24:00.833Z,99568.97
2023-11-09T07:26:36.741Z,99569.34
2023-11-09T07:29:08.862Z,99572.69
2023-11-09T07:31:38.476Z,99573.94
2023-11-09T07:34:08.206Z,99565.84
2023-11-09T07:36:37.876Z,99562.72
2023-11-09T07:39:07.639Z,99566.25
2023-11-09T07:41:38.057Z,99557.31
2023-11-09T07:44:10.351Z,99552.47
2023-11-09T07:46:39.941Z,99556.63
2023-11-09T07:49:11.907Z,99552.50
2023-11-09T07:51:41.815Z,99553.97
2023-11-09T07:54:11.628Z,99557.91
2023-11-09T07:56:41.571Z,99548.34
2023-11-09T07:59:15.173Z,99551.03
2023-11-09T08:01:44.810Z,99554.34
2023-11-09T08:04:14.433Z,99564.56
2023-11-09T08:06:44.180Z,99562.06
2023-11-09T08:09:17.037Z,99570.81
2023-11-09T08:11:47.090Z,99567.66
2023-11-09T08:14:19.278Z,99568.47
2023-11-09T08:17:01.817Z,99570.16
2023-11-09T08:19:31.516Z,99576.81
2023-11-09T08:22:03.540Z,99572.25
2023-11-09T08:24:33.899Z,99585.34
2023-11-09T08:27:03.499Z,99582.00
2023-11-09T08:29:36.522Z,99568.06
2023-11-09T08:32:06.687Z,99572.25
2023-11-09T08:34:36.496Z,99579.09
2023-11-09T08:37:07.745Z,99571.00
2023-11-09T08:39:38.768Z,99576.19
2023-11-09T08:42:09.332Z,99581.16
2023-11-09T08:44:43.141Z,99581.34
2023-11-09T08:47:12.837Z,99586.34
2023-11-09T08:49:42.458Z,99586.31
2023-11-09T08:52:12.299Z,99582.94
2023-11-09T08:54:43.147Z,99587.09
2023-11-09T08:57:12.685Z,99586.47
2023-11-09T08:59:45.064Z,99583.97
2023-11-09T09:02:14.668Z,99581.66
2023-11-09T09:04:44.510Z,99582.50
2023-11-09T09:07:14.166Z,99578.97
2023-11-09T09:09:47.013Z,99581.66
2023-11-09T09:12:16.981Z,99592.91
2023-11-09T09:14:52.418Z,99601.22
2023-11-09T09:17:21.993Z,99589.59
2023-11-09T09:19:52.598Z,99590.38
2023-11-09T09:22:22.261Z,99586.47
2023-11-09T09:24:51.935Z,99592.09
2023-11-09T09:27:21.485Z,99591.06
2023-11-09T09:29:53.715Z,99597.06
2023-11-09T09:32:25.212Z,99591.06
2023-11-09T09:34:56.266Z,99596.06
2023-11-09T09:37:25.891Z,99595.44
2023-11-09T09:39:55.596Z,99597.31
2023-11-09T09:42:26.597Z,99597.31
2023-11-09T09:45:00.122Z,99600.84
2023-11-09T09:47:31.772Z,99602.13
2023-11-09T09:50:02.539Z,99605.84
2023-11-09T09:52:32.913Z,99604.41
2023-11-09T09:55:02.473Z,99610.66
2023-11-09T09:57:32.246Z,99601.31
2023-11-09T10:00:08.915Z,99602.34
2023-11-09T10:02:42.916Z,99605.28
2023-11-09T10:05:15.313Z,99604.22
2023-11-09T10:08:03.286Z,99600.66
2023-11-09T10:10:33.832Z,99596.88
2023-11-09T10:13:07.638Z,99589.31
2023-11-09T10:15:41.369Z,99595.56
2023-11-09T10:18:12.963Z,99599.84
2023-11-09T10:20:43.006Z,99594.88
2023-11-09T10:23:15.892Z,99585.69
2023-11-09T10:25:45.876Z,99586.34
2023-11-09T10:28:16.295Z,99583.25
2023-11-09T10:30:49.869Z,99590.94
2023-11-09T10:33:22.801Z,99590.75
2023-11-09T10:35:54.199Z,99591.78
2023-11-09T10:38:25.623Z,99593.44
2023-11-09T10:41:14.979Z,99593.63
2023-11-09T10:43:46.641Z,99593.41
2023-11-09T10:46:20.398Z,99588.81
2023-11-09T10:48:53.583Z,99583.22
2023-11-09T10:51:26.123Z,99583.00
2023-11-09T10:54:00.826Z,99595.25
2023-11-09T10:56:34.013Z,99580.53
2023-11-09T10:59:03.642Z,99589.66
2023-11-09T11:01:37.487Z,99599.44
2023-11-09T11:04:11.086Z,99586.50
2023-11-09T11:06:52.327Z,99585.69
2023-11-09T11:09:27.514Z,99594.63
2023-11-09T11:12:03.238Z,99590.06
2023-11-09T11:14:35.548Z,99587.34
2023-11-09T11:17:25.509Z,99579.00
2023-11-09T11:20:36.025Z,99580.06
2023-11-09T11:23:21.680Z,99579.66
2023-11-09T11:25:57.590Z,99573.84
2023-11-09T11:28:28.954Z,99566.56
2023-11-09T11:31:05.498Z,99574.88
2023-11-09T11:33:38.533Z,99567.38
2023-11-09T11:36:09.236Z,99564.69
2023-11-09T11:38:41.331Z,99568.41
2023-11-09T11:41:23.787Z,99559.28
2023-11-09T11:43:58.222Z,99560.91
2023-11-09T11:46:28.432Z,99546.56
2023-11-09T11:49:01.052Z,99557.16
2023-11-09T11:51:33.438Z,99552.59
2023-11-09T11:54:11.128Z,99555.31
2023-11-09T11:56:42.608Z,99550.53
2023-11-09T11:59:13.429Z,99534.72
2023-11-09T12:01:44.805Z,99552.78
2023-11-09T12:04:18.746Z,99551.09
2023-11-09T12:06:53.983Z,99543.22
2023-11-09T12:09:23.767Z,99554.63
2023-11-09T12:11:56.716Z,99543.16
2023-11-09T12:14:26.430Z,99547.94
2023-11-09T12:16:56.205Z,99543.38
2023-11-09T12:19:28.437Z,99545.22
2023-11-09T12:21:58.124Z,99544.81
2023-11-09T12:24:29.709Z,99538.97
2023-11-09T12:27:09.000Z,99536.69
2023-11-09T12:29:40.025Z,99538.34
2023-11-09T12:32:11.213Z,99540.22
2023-11-09T12:34:45.089Z,99541.47
2023-11-09T12:37:18.092Z,99533.94
2023-11-09T12:39:49.789Z,99543.06
2023-11-09T12:42:26.414Z,99540.75
2023-11-09T12:44:57.872Z,99541.19
2023-11-09T12:47:27.938Z,99534.75
2023-11-09T12:50:06.089Z,99534.75
2023-11-09T12:52:36.720Z,99532.03
2023-11-09T12:55:08.553Z,99527.63
2023-11-09T12:57:43.299Z,99518.94
2023-11-09T13:00:22.006Z,99528.06
2023-11-09T13:02:58.224Z,99540.34
2023-11-09T13:05:34.022Z,99534.09
2023-11-09T13:08:10.988Z,99525.81
2023-11-09T13:10:45.086Z,99528.91
2023-11-09T13:13:26.261Z,99529.09
2023-11-09T13:15:58.216Z,99531.19
2023-11-09T13:18:30.412Z,99533.88
2023-11-09T13:21:02.729Z,99534.72
2023-11-09T13:23:40.451Z,99537.59
2023-11-09T13:26:10.275Z,99533.84
2023-11-09T13:28:41.850Z,99532.34
2023-11-09T13:31:20.496Z,99538.38
2023-11-09T13:33:50.591Z,99542.53
2023-11-09T13:36:39.047Z,99533.56
2023-11-09T13:39:32.987Z,99530.47
2023-11-09T13:42:12.258Z,99538.59
2023-11-09T13:44:43.577Z,99529.88
2023-11-09T13:47:14.401Z,99535.88
2023-11-09T13:49:44.091Z,99527.16
2023-11-09T13:52:32.735Z,99530.06
2023-11-09T13:55:14.613Z,99521.94
2023-11-09T13:57:43.994Z,99516.78
2023-11-09T14:00:32.946Z,99520.31
2023-11-09T14:03:02.744Z,99516.16
2023-11-09T14:05:32.417Z,99509.53
2023-11-09T14:08:16.535Z,99520.34
2023-11-09T14:10:49.668Z,99514.09
2023-11-09T14:13:29.884Z,99518.47
2023-11-09T14:16:13.068Z,99517.41
2023-11-09T14:18:52.236Z,99511.41
2023-11-09T14:21:24.982Z,99515.97
2023-11-09T14:23:58.287Z,99512.06
2023-11-09T14:26:28.784Z,99517.47
2023-11-09T14:29:02.706Z,99514.38
2023-11-09T14:31:37.985Z,99504.59
2023-11-09T14:34:11.941Z,99500.84
2023-11-09T14:36:43.592Z,99501.25
2023-11-09T14:39:32.604Z,99502.88
2023-11-09T14:42:07.337Z,99496.03
2023-11-09T14:44:38.078Z,99499.34
2023-11-09T14:47:11.989Z,99492.28
2023-11-09T14:49:50.590Z,99481.47
2023-11-09T14:52:22.305Z,99469.81
2023-11-09T14:54:58.684Z,99477.09
2023-11-09T14:57:29.439Z,99473.94
2023-11-09T14:59:59.074Z,99479.59
2023-11-09T15:02:29.248Z,99481.03
2023-11-09T15:04:59.114Z,99487.72
2023-11-09T15:07:28.713Z,99491.03
2023-11-09T15:10:01.618Z,99488.75
2023-11-09T15:12:36.144Z,99483.53
2023-11-09T15:15:09.464Z,99483.34
2023-11-09T15:17:39.463Z,99476.53
2023-11-09T15:20:16.938Z,99482.94
2023-11-09T15:22:47.641Z,99476.50
2023-11-09T15:25:19.914Z,99475.44
2023-11-09T15:27:50.345Z,99487.53
2023-11-09T15:30:24.763Z,99478.81
2023-11-09T15:32:55.291Z,99474.88
2023-11-09T15:35:27.452Z,99472.16
2023-11-09T15:38:01.307Z,99472.34
2023-11-09T15:41:10.825Z,99475.25
2023-11-09T15:43:24.060Z,99466.31
2023-11-09T15:45:56.700Z,99471.28
2023-11-09T15:48:28.140Z,99451.56
2023-11-09T15:50:57.706Z,99475.06
2023-11-09T15:53:27.492Z,99471.53
2023-11-09T15:55:59.753Z,99471.28
2023-11-09T15:58:29.453Z,99465.88
2023-11-09T16:01:02.433Z,99468.81
2023-11-09T16:03:34.946Z,99467.16
2023-11-09T16:06:04.568Z,99472.75
2023-11-09T16:08:34.155Z,99475.47
2023-11-09T16:11:08.752Z,99469.84
2023-11-09T16:13:38.495Z,99475.06
2023-11-09T16:16:08.253Z,99480.69
2023-11-09T16:18:39.447Z,99475.06
2023-11-09T16:21:09.722Z,99478.97
2023-11-09T16:23:40.074Z,99472.34
2023-11-09T16:26:12.729Z,99455.72
2023-11-09T16:28:47.243Z,99465.72
2023-11-09T16:31:17.807Z,99467.41
2023-11-09T16:33:48.456Z,99458.66
2023-11-09T16:36:18.328Z,99459.75
2023-11-09T16:38:48.704Z,99456.63
2023-11-09T16:41:21.932Z,99455.19
2023-11-09T16:43:51.524Z,99453.94
2023-11-09T16:46:24.874Z,99453.69
2023-11-09T16:48:55.560Z,99454.53
2023-11-09T16:51:25.156Z,99445.41
2023-11-09T16:53:54.748Z,99453.97
2023-11-09T16:56:27.427Z,99437.94
2023-11-09T16:58:57.020Z,99451.91
2023-11-09T17:01:26.624Z,99441.50
2023-11-09T17:03:56.265Z,99440.47
2023-11-09T17:06:26.681Z,99445.88
2023-11-09T17:08:56.243Z,99440.72
2023-11-09T17:11:29.668Z,99445.50
2023-11-09T17:13:59.375Z,99435.72
2023-11-09T17:16:29.121Z,99433.84
2023-11-09T17:19:00.722Z,99447.59
2023-11-09T17:21:30.288Z,99428.47
2023-11-09T17:23:59.839Z,99427.66
2023-11-09T17:26:32.314Z,99426.19
2023-11-09T17:29:02.777Z,99431.84
2023-11-09T17:31:32.379Z,99425.38
2023-11-09T17:34:01.977Z,99423.28
2023-11-09T17:36:28.965Z,99415.38
2023-11-09T17:38:58.524Z,99418.31
2023-11-09T17:41:28.115Z,99403.75
2023-11-09T17:44:02.233Z,99400.22
2023-11-09T17:46:31.888Z,99396.09
2023-11-09T17:49:02.363Z,99388.56
2023-11-09T17:51:32.412Z,99396.72
2023-11-09T17:54:05.581Z,99390.91
2023-11-09T17:56:35.200Z,99381.16
2023-11-09T17:59:07.458Z,99380.97
2023-11-09T18:01:37.407Z,99383.69
2023-11-09T18:04:08.032Z,99379.56
2023-11-09T18:06:38.865Z,99394.75
2023-11-09T18:09:08.935Z,99400.59
2023-11-09T18:11:44.027Z,99402.66
2023-11-09T18:14:17.333Z,99412.66
2023-11-09T18:16:50.456Z,99413.47
2023-11-09T18:19:20.202Z,99407.84
2023-11-09T18:21:50.575Z,99400.78
2023-11-09T18:24:21.213Z,99392.06
2023-11-09T18:26:50.769Z,99385.44
2023-11-09T18:29:24.397Z,99391.25
2023-11-09T18:31:54.071Z,99387.13
2023-11-09T18:34:23.839Z,99390.03
2023-11-09T18:36:53.791Z,99397.06
2023-11-09T18:39:23.344Z,99403.53
2023-11-09T18:41:53.150Z,99408.09
2023-11-09T18:44:25.309Z,99402.72
2023-11-09T18:46:54.956Z,99403.75
2023-11-09T18:51:57.086Z,99402.72
2023-11-09T18:54:26.704Z,99395.66
2023-11-09T18:56:56.415Z,99399.38
2023-11-09T18:59:28.571Z,99393.75
2023-11-09T19:01:58.156Z,99390.66
2023-11-09T19:07:00.390Z,99390.06
2023-11-09T19:09:30.737Z,99392.75
2023-11-09T19:12:00.289Z,99384.00
2023-11-09T19:14:32.502Z,99384.25
2023-11-09T19:17:05.681Z,99385.28
2023-11-09T19:19:37.129Z,99385.28
2023-11-09T19:24:40.606Z,99383.38
2023-11-09T19:27:12.877Z,99379.25
2023-11-09T19:29:45.177Z,99358.50
2023-11-09T19:32:16.269Z,99369.03
2023-11-09T19:34:45.886Z,99377.16
2023-11-09T19:37:15.454Z,99365.09
2023-11-09T19:39:46.462Z,99368.44
2023-11-09T19:42:16.303Z,99364.34
2023-11-09T19:44:48.893Z,99357.13
2023-11-09T19:47:18.815Z,99351.72
2023-11-09T19:49:48.455Z,99356.91
2023-11-09T19:52:18.036Z,99341.13
2023-11-09T19:54:47.673Z,99345.06
2023-11-09T19:57:17.267Z,99339.47
2023-11-09T19:59:49.390Z,99335.56
2023-11-09T20:02:21.483Z,99342.22
2023-11-09T20:04:53.049Z,99330.81
2023-11-09T20:07:22.687Z,99323.94
2023-11-09T20:09:52.255Z,99323.34
2023-11-09T20:12:22.434Z,99310.28
2023-11-09T20:14:54.608Z,99306.56
2023-11-09T20:17:27.309Z,99303.84
2023-11-09T20:19:56.721Z,99294.06
2023-11-09T20:22:26.270Z,99302.19
2023-11-09T20:24:55.858Z,99303.41
2023-11-09T20:27:25.569Z,99303.00
2023-11-09T20:29:57.742Z,99300.50
2023-11-09T20:32:29.517Z,99311.91
2023-11-09T20:34:59.653Z,99303.16
2023-11-09T20:37:29.384Z,99299.19
2023-11-09T20:39:58.935Z,99298.16
2023-11-09T20:42:29.390Z,99294.88
2023-11-09T20:45:13.221Z,99290.31
2023-11-09T20:47:43.095Z,99282.44
2023-11-09T20:50:16.331Z,99284.94
2023-11-09T20:52:51.224Z,99275.97
2023-11-09T20:55:23.125Z,99278.25
2023-11-09T20:57:54.152Z,99267.22
2023-11-09T21:00:30.080Z,99276.97
2023-11-09T21:02:59.884Z,99284.25
2023-11-09T21:05:29.798Z,99281.13
2023-11-09T21:08:00.324Z,99281.53
2023-11-09T21:10:30.750Z,99277.56
2023-11-09T21:13:00.437Z,99261.59
2023-11-09T21:15:33.299Z,99264.72
2023-11-09T21:18:03.037Z,99263.63
2023-11-09T21:20:33.143Z,99251.50
2023-11-09T21:23:03.950Z,99256.09
2023-11-09T21:25:34.362Z,99247.59
2023-11-09T21:28:04.099Z,99243.25
2023-11-09T21:30:36.412Z,99237.63
2023-11-09T21:33:06.293Z,99230.63
2023-11-09T21:35:36.697Z,99233.09
2023-11-09T21:38:06.296Z,99224.59
2023-11-09T21:40:35.880Z,99216.03
2023-11-09T21:43:05.440Z,99212.47
2023-11-09T21:45:37.691Z,99222.63
2023-11-09T21:48:07.771Z,99219.91
2023-11-09T21:50:37.370Z,99216.19
2023-11-09T21:53:14.621Z,99217.59
2023-11-09T21:55:44.352Z,99216.78
2023-11-09T21:58:13.923Z,99204.28
2023-11-09T22:00:46.507Z,99198.41
2023-11-09T22:03:17.182Z,99189.50
2023-11-09T22:05:46.911Z,99197.22
2023-11-09T22:08:16.481Z,99196.22
2023-11-09T22:10:46.269Z,99198.72
2023-11-09T22:13:16.060Z,99183.94
2023-11-09T22:15:48.292Z,99191.47
2023-11-09T22:18:18.024Z,99189.94
2023-11-09T22:20:47.581Z,99194.97
2023-11-09T22:23:17.142Z,99187.72
2023-11-09T22:25:46.747Z,99184.16
2023-11-09T22:28:16.327Z,99184.56
2023-11-09T22:30:48.469Z,99187.50
2023-11-09T22:33:19.379Z,99184.34
2023-11-09T22:35:49.433Z,99177.06
2023-11-09T22:38:19.037Z,99175.13
2023-11-09T22:40:48.635Z,99172.66
2023-11-09T22:43:19.124Z,99161.84
2023-11-09T22:45:51.550Z,99164.72
2023-11-09T22:48:21.533Z,99167.41
2023-11-09T22:50:52.110Z,99172.81
2023-11-09T22:53:21.785Z,99180.31
2023-11-09T22:55:51.370Z,99201.94
2023-11-09T22:58:20.933Z,99199.22
2023-11-09T23:00:55.376Z,99186.16
2023-11-09T23:03:25.108Z,99176.38
2023-11-09T23:05:56.410Z,99181.78
2023-11-09T23:08:26.452Z,99164.69
2023-11-09T23:10:56.040Z,99192.09
2023-11-09T23:13:25.658Z,99199.16
2023-11-09T23:15:58.053Z,99203.50
2023-11-09T23:18:29.644Z,99200.47
2023-11-09T23:20:59.235Z,99191.25
2023-11-09T23:23:28.939Z,99189.63
2023-11-09T23:25:58.487Z,99181.34
2023-11-09T23:28:28.238Z,99180.19
2023-11-09T23:31:00.552Z,99188.03
2023-11-09T23:33:35.850Z,99187.88
2023-11-09T23:36:05.511Z,99188.72
2023-11-09T23:38:35.062Z,99184.19
2023-11-09T23:41:04.622Z,99193.91
2023-11-09T23:43:34.269Z,99183.75
2023-11-09T23:46:07.916Z,99171.56
2023-11-09T23:48:37.924Z,99187.09
2023-11-09T23:51:07.857Z,99179.38
2023-11-09T23:53:38.851Z,99191.41
2023-11-09T23:56:09.880Z,99180.25
2023-11-09T23:58:39.417Z,99180.28
